sensor_id;sensor_type;location;lat;lon;timestamp;P1;durP1;ratioP1;P2;durP2;ratioP2
71383;SDS011;67558;52.166;5.004;2023-04-25T00:02:08;8.63;;;7.82;;
71383;SDS011;67558;52.166;5.004;2023-04-25T00:04:33;7.90;;;7.40;;
71383;SDS011;67558;52.166;5.004;2023-04-25T00:06:59;8.35;;;7.72;;
71383;SDS011;67558;52.166;5.004;2023-04-25T00:09:26;9.13;;;8.23;;
71383;SDS011;67558;52.166;5.004;2023-04-25T00:11:52;10.45;;;8.07;;
71383;SDS011;67558;52.166;5.004;2023-04-25T00:14:17;7.55;;;7.05;;
71383;SDS011;67558;52.166;5.004;2023-04-25T00:16:43;10.10;;;6.68;;
71383;SDS011;67558;52.166;5.004;2023-04-25T00:19:08;8.65;;;7.32;;
71383;SDS011;67558;52.166;5.004;2023-04-25T00:21:34;13.45;;;9.07;;
71383;SDS011;67558;52.166;5.004;2023-04-25T00:24:00;7.28;;;6.63;;
71383;SDS011;67558;52.166;5.004;2023-04-25T00:26:26;7.60;;;6.90;;
71383;SDS011;67558;52.166;5.004;2023-04-25T00:28:52;10.23;;;8.02;;
71383;SDS011;67558;52.166;5.004;2023-04-25T00:31:17;8.30;;;7.60;;
71383;SDS011;67558;52.166;5.004;2023-04-25T00:33:43;7.50;;;6.95;;
71383;SDS011;67558;52.166;5.004;2023-04-25T00:36:08;7.15;;;6.68;;
71383;SDS011;67558;52.166;5.004;2023-04-25T00:38:34;6.75;;;6.28;;
71383;SDS011;67558;52.166;5.004;2023-04-25T00:41:00;9.45;;;7.13;;
71383;SDS011;67558;52.166;5.004;2023-04-25T00:43:26;8.88;;;7.93;;
71383;SDS011;67558;52.166;5.004;2023-04-25T00:45:52;9.82;;;7.78;;
71383;SDS011;67558;52.166;5.004;2023-04-25T00:48:20;5.00;;;4.60;;
71383;SDS011;67558;52.166;5.004;2023-04-25T00:50:50;7.90;;;7.07;;
71383;SDS011;67558;52.166;5.004;2023-04-25T00:55:44;6.32;;;5.75;;
71383;SDS011;67558;52.166;5.004;2023-04-25T00:58:10;4.45;;;3.83;;
71383;SDS011;67558;52.166;5.004;2023-04-25T01:00:36;8.18;;;7.40;;
71383;SDS011;67558;52.166;5.004;2023-04-25T01:03:01;7.72;;;6.40;;
71383;SDS011;67558;52.166;5.004;2023-04-25T01:05:28;7.25;;;6.60;;
71383;SDS011;67558;52.166;5.004;2023-04-25T01:07:54;7.55;;;6.95;;
71383;SDS011;67558;52.166;5.004;2023-04-25T01:10:20;11.20;;;7.68;;
71383;SDS011;67558;52.166;5.004;2023-04-25T01:12:45;9.38;;;6.93;;
71383;SDS011;67558;52.166;5.004;2023-04-25T01:15:11;8.80;;;7.75;;
71383;SDS011;67558;52.166;5.004;2023-04-25T01:17:37;7.10;;;6.28;;
71383;SDS011;67558;52.166;5.004;2023-04-25T01:20:03;7.30;;;6.82;;
71383;SDS011;67558;52.166;5.004;2023-04-25T01:22:30;14.60;;;7.35;;
71383;SDS011;67558;52.166;5.004;2023-04-25T01:24:56;7.68;;;7.00;;
71383;SDS011;67558;52.166;5.004;2023-04-25T01:27:22;7.15;;;6.43;;
71383;SDS011;67558;52.166;5.004;2023-04-25T01:29:48;13.38;;;7.93;;
71383;SDS011;67558;52.166;5.004;2023-04-25T01:32:15;6.78;;;6.18;;
71383;SDS011;67558;52.166;5.004;2023-04-25T01:34:40;7.53;;;6.97;;
71383;SDS011;67558;52.166;5.004;2023-04-25T01:37:06;4.80;;;4.22;;
71383;SDS011;67558;52.166;5.004;2023-04-25T01:39:31;9.68;;;7.13;;
71383;SDS011;67558;52.166;5.004;2023-04-25T01:41:58;7.40;;;6.95;;
71383;SDS011;67558;52.166;5.004;2023-04-25T01:44:24;8.77;;;7.35;;
71383;SDS011;67558;52.166;5.004;2023-04-25T01:46:50;8.77;;;8.18;;
71383;SDS011;67558;52.166;5.004;2023-04-25T01:49:15;8.05;;;7.28;;
71383;SDS011;67558;52.166;5.004;2023-04-25T01:51:41;8.10;;;7.50;;
71383;SDS011;67558;52.166;5.004;2023-04-25T01:54:07;6.28;;;5.90;;
71383;SDS011;67558;52.166;5.004;2023-04-25T01:56:34;7.75;;;7.03;;
71383;SDS011;67558;52.166;5.004;2023-04-25T01:59:02;9.60;;;6.53;;
71383;SDS011;67558;52.166;5.004;2023-04-25T02:01:29;7.40;;;6.82;;
71383;SDS011;67558;52.166;5.004;2023-04-25T02:03:54;6.07;;;5.72;;
71383;SDS011;67558;52.166;5.004;2023-04-25T02:06:20;7.05;;;6.18;;
71383;SDS011;67558;52.166;5.004;2023-04-25T02:08:45;11.05;;;6.88;;
71383;SDS011;67558;52.166;5.004;2023-04-25T02:11:11;8.93;;;8.02;;
71383;SDS011;67558;52.166;5.004;2023-04-25T02:13:36;9.95;;;6.10;;
71383;SDS011;67558;52.166;5.004;2023-04-25T02:16:01;8.02;;;7.40;;
71383;SDS011;67558;52.166;5.004;2023-04-25T02:18:27;7.70;;;7.00;;
71383;SDS011;67558;52.166;5.004;2023-04-25T02:20:52;9.05;;;7.28;;
71383;SDS011;67558;52.166;5.004;2023-04-25T02:23:18;11.25;;;7.70;;
71383;SDS011;67558;52.166;5.004;2023-04-25T02:25:46;7.47;;;6.47;;
71383;SDS011;67558;52.166;5.004;2023-04-25T02:28:12;11.65;;;6.95;;
71383;SDS011;67558;52.166;5.004;2023-04-25T02:30:37;7.75;;;7.10;;
71383;SDS011;67558;52.166;5.004;2023-04-25T02:33:02;8.20;;;7.40;;
71383;SDS011;67558;52.166;5.004;2023-04-25T02:35:28;7.22;;;6.57;;
71383;SDS011;67558;52.166;5.004;2023-04-25T02:37:53;7.80;;;6.70;;
71383;SDS011;67558;52.166;5.004;2023-04-25T02:40:18;7.18;;;6.40;;
71383;SDS011;67558;52.166;5.004;2023-04-25T02:42:44;8.25;;;6.78;;
71383;SDS011;67558;52.166;5.004;2023-04-25T02:45:10;8.02;;;7.38;;
71383;SDS011;67558;52.166;5.004;2023-04-25T02:47:36;8.27;;;7.60;;
71383;SDS011;67558;52.166;5.004;2023-04-25T02:50:02;9.10;;;8.30;;
71383;SDS011;67558;52.166;5.004;2023-04-25T02:52:28;7.00;;;6.32;;
71383;SDS011;67558;52.166;5.004;2023-04-25T02:54:53;8.57;;;7.88;;
71383;SDS011;67558;52.166;5.004;2023-04-25T02:57:18;12.10;;;7.25;;
71383;SDS011;67558;52.166;5.004;2023-04-25T02:59:44;7.95;;;7.25;;
71383;SDS011;67558;52.166;5.004;2023-04-25T03:02:09;8.55;;;7.03;;
71383;SDS011;67558;52.166;5.004;2023-04-25T03:04:35;9.93;;;7.18;;
71383;SDS011;67558;52.166;5.004;2023-04-25T03:07:00;9.45;;;8.02;;
71383;SDS011;67558;52.166;5.004;2023-04-25T03:09:26;8.05;;;6.78;;
71383;SDS011;67558;52.166;5.004;2023-04-25T03:11:51;6.93;;;4.28;;
71383;SDS011;67558;52.166;5.004;2023-04-25T03:14:16;9.55;;;8.80;;
71383;SDS011;67558;52.166;5.004;2023-04-25T03:16:42;8.20;;;7.15;;
71383;SDS011;67558;52.166;5.004;2023-04-25T03:19:07;7.15;;;6.28;;
71383;SDS011;67558;52.166;5.004;2023-04-25T03:21:33;7.25;;;5.97;;
71383;SDS011;67558;52.166;5.004;2023-04-25T03:24:00;8.40;;;6.00;;
71383;SDS011;67558;52.166;5.004;2023-04-25T03:26:27;7.30;;;6.80;;
71383;SDS011;67558;52.166;5.004;2023-04-25T03:28:52;6.72;;;6.20;;
71383;SDS011;67558;52.166;5.004;2023-04-25T03:31:18;8.27;;;7.85;;
71383;SDS011;67558;52.166;5.004;2023-04-25T03:33:43;10.02;;;6.47;;
71383;SDS011;67558;52.166;5.004;2023-04-25T03:36:08;6.38;;;5.78;;
71383;SDS011;67558;52.166;5.004;2023-04-25T03:38:34;6.75;;;5.95;;
71383;SDS011;67558;52.166;5.004;2023-04-25T03:41:00;6.63;;;6.13;;
71383;SDS011;67558;52.166;5.004;2023-04-25T03:43:26;6.80;;;6.30;;
71383;SDS011;67558;52.166;5.004;2023-04-25T03:45:51;5.32;;;3.92;;
71383;SDS011;67558;52.166;5.004;2023-04-25T03:48:17;7.68;;;5.63;;
71383;SDS011;67558;52.166;5.004;2023-04-25T03:50:42;6.03;;;5.47;;
71383;SDS011;67558;52.166;5.004;2023-04-25T03:53:08;7.10;;;6.78;;
71383;SDS011;67558;52.166;5.004;2023-04-25T03:55:33;3.80;;;3.30;;
71383;SDS011;67558;52.166;5.004;2023-04-25T03:57:58;6.07;;;5.18;;
71383;SDS011;67558;52.166;5.004;2023-04-25T04:00:24;6.38;;;5.97;;
71383;SDS011;67558;52.166;5.004;2023-04-25T04:02:50;4.32;;;4.03;;
71383;SDS011;67558;52.166;5.004;2023-04-25T04:05:15;6.38;;;5.82;;
71383;SDS011;67558;52.166;5.004;2023-04-25T04:07:41;5.50;;;5.20;;
71383;SDS011;67558;52.166;5.004;2023-04-25T04:10:08;5.68;;;5.30;;
71383;SDS011;67558;52.166;5.004;2023-04-25T04:12:34;4.78;;;3.38;;
71383;SDS011;67558;52.166;5.004;2023-04-25T04:14:59;7.22;;;6.72;;
71383;SDS011;67558;52.166;5.004;2023-04-25T04:17:24;6.60;;;6.10;;
71383;SDS011;67558;52.166;5.004;2023-04-25T04:19:50;6.72;;;6.30;;
71383;SDS011;67558;52.166;5.004;2023-04-25T04:22:15;3.60;;;3.30;;
71383;SDS011;67558;52.166;5.004;2023-04-25T04:24:41;6.05;;;5.65;;
71383;SDS011;67558;52.166;5.004;2023-04-25T04:27:08;7.70;;;7.00;;
71383;SDS011;67558;52.166;5.004;2023-04-25T04:29:34;6.20;;;5.68;;
71383;SDS011;67558;52.166;5.004;2023-04-25T04:32:01;6.22;;;5.60;;
71383;SDS011;67558;52.166;5.004;2023-04-25T04:34:27;5.78;;;3.90;;
71383;SDS011;67558;52.166;5.004;2023-04-25T04:36:53;7.35;;;6.03;;
71383;SDS011;67558;52.166;5.004;2023-04-25T04:39:19;6.03;;;5.70;;
71383;SDS011;67558;52.166;5.004;2023-04-25T04:41:45;6.85;;;6.45;;
71383;SDS011;67558;52.166;5.004;2023-04-25T04:44:11;7.50;;;6.93;;
71383;SDS011;67558;52.166;5.004;2023-04-25T04:46:37;6.10;;;5.68;;
71383;SDS011;67558;52.166;5.004;2023-04-25T04:49:07;3.88;;;3.33;;
71383;SDS011;67558;52.166;5.004;2023-04-25T04:51:42;9.48;;;9.07;;
71383;SDS011;67558;52.166;5.004;2023-04-25T04:54:09;5.65;;;5.15;;
71383;SDS011;67558;52.166;5.004;2023-04-25T04:56:34;8.23;;;5.07;;
71383;SDS011;67558;52.166;5.004;2023-04-25T04:59:00;6.47;;;5.90;;
71383;SDS011;67558;52.166;5.004;2023-04-25T05:01:26;5.82;;;5.32;;
71383;SDS011;67558;52.166;5.004;2023-04-25T05:03:52;7.05;;;6.55;;
71383;SDS011;67558;52.166;5.004;2023-04-25T05:06:18;7.60;;;6.70;;
71383;SDS011;67558;52.166;5.004;2023-04-25T05:08:44;6.45;;;5.63;;
71383;SDS011;67558;52.166;5.004;2023-04-25T05:11:09;6.63;;;5.95;;
71383;SDS011;67558;52.166;5.004;2023-04-25T05:13:35;5.70;;;5.40;;
71383;SDS011;67558;52.166;5.004;2023-04-25T05:16:00;6.82;;;5.70;;
71383;SDS011;67558;52.166;5.004;2023-04-25T05:18:25;6.95;;;6.45;;
71383;SDS011;67558;52.166;5.004;2023-04-25T05:20:51;5.93;;;5.53;;
71383;SDS011;67558;52.166;5.004;2023-04-25T05:23:16;6.18;;;5.88;;
71383;SDS011;67558;52.166;5.004;2023-04-25T05:25:41;6.07;;;5.53;;
71383;SDS011;67558;52.166;5.004;2023-04-25T05:28:07;7.10;;;6.47;;
71383;SDS011;67558;52.166;5.004;2023-04-25T05:30:33;5.53;;;5.13;;
71383;SDS011;67558;52.166;5.004;2023-04-25T05:33:00;6.22;;;5.82;;
71383;SDS011;67558;52.166;5.004;2023-04-25T05:35:25;7.22;;;6.55;;
71383;SDS011;67558;52.166;5.004;2023-04-25T05:37:51;6.03;;;5.47;;
71383;SDS011;67558;52.166;5.004;2023-04-25T05:40:16;4.60;;;4.20;;
71383;SDS011;67558;52.166;5.004;2023-04-25T05:42:41;4.70;;;4.40;;
71383;SDS011;67558;52.166;5.004;2023-04-25T05:45:07;5.97;;;3.88;;
71383;SDS011;67558;52.166;5.004;2023-04-25T05:47:32;7.53;;;7.05;;
71383;SDS011;67558;52.166;5.004;2023-04-25T05:49:58;4.22;;;3.80;;
71383;SDS011;67558;52.166;5.004;2023-04-25T05:52:23;7.50;;;6.95;;
71383;SDS011;67558;52.166;5.004;2023-04-25T05:54:48;4.93;;;3.30;;
71383;SDS011;67558;52.166;5.004;2023-04-25T05:57:21;6.65;;;6.20;;
71383;SDS011;67558;52.166;5.004;2023-04-25T05:59:47;7.72;;;7.32;;
71383;SDS011;67558;52.166;5.004;2023-04-25T06:02:12;7.85;;;7.25;;
71383;SDS011;67558;52.166;5.004;2023-04-25T06:04:38;7.25;;;6.50;;
71383;SDS011;67558;52.166;5.004;2023-04-25T06:07:03;6.65;;;6.35;;
71383;SDS011;67558;52.166;5.004;2023-04-25T06:09:28;7.55;;;6.90;;
71383;SDS011;67558;52.166;5.004;2023-04-25T06:11:54;7.60;;;7.10;;
71383;SDS011;67558;52.166;5.004;2023-04-25T06:14:19;7.65;;;7.22;;
71383;SDS011;67558;52.166;5.004;2023-04-25T06:16:45;6.72;;;6.28;;
71383;SDS011;67558;52.166;5.004;2023-04-25T06:19:11;7.80;;;7.50;;
71383;SDS011;67558;52.166;5.004;2023-04-25T06:21:37;4.45;;;4.07;;
71383;SDS011;67558;52.166;5.004;2023-04-25T06:24:02;7.28;;;6.93;;
71383;SDS011;67558;52.166;5.004;2023-04-25T06:26:28;9.85;;;9.23;;
71383;SDS011;67558;52.166;5.004;2023-04-25T06:28:53;7.70;;;7.25;;
71383;SDS011;67558;52.166;5.004;2023-04-25T06:31:18;5.97;;;5.30;;
71383;SDS011;67558;52.166;5.004;2023-04-25T06:33:44;9.55;;;9.02;;
71383;SDS011;67558;52.166;5.004;2023-04-25T06:36:09;9.15;;;8.48;;
71383;SDS011;67558;52.166;5.004;2023-04-25T06:38:35;9.65;;;9.07;;
71383;SDS011;67558;52.166;5.004;2023-04-25T06:41:01;10.77;;;9.85;;
71383;SDS011;67558;52.166;5.004;2023-04-25T06:43:26;11.10;;;10.52;;
71383;SDS011;67558;52.166;5.004;2023-04-25T06:45:51;12.00;;;11.07;;
71383;SDS011;67558;52.166;5.004;2023-04-25T06:48:17;12.82;;;11.93;;
71383;SDS011;67558;52.166;5.004;2023-04-25T06:50:42;15.02;;;13.88;;
71383;SDS011;67558;52.166;5.004;2023-04-25T06:53:07;12.88;;;12.05;;
71383;SDS011;67558;52.166;5.004;2023-04-25T06:55:33;12.07;;;11.07;;
71383;SDS011;67558;52.166;5.004;2023-04-25T06:57:59;13.52;;;11.95;;
71383;SDS011;67558;52.166;5.004;2023-04-25T07:00:25;13.18;;;12.43;;
71383;SDS011;67558;52.166;5.004;2023-04-25T07:02:50;13.43;;;12.65;;
71383;SDS011;67558;52.166;5.004;2023-04-25T07:05:16;12.20;;;11.52;;
71383;SDS011;67558;52.166;5.004;2023-04-25T07:07:41;12.77;;;11.77;;
71383;SDS011;67558;52.166;5.004;2023-04-25T07:10:06;13.35;;;12.63;;
71383;SDS011;67558;52.166;5.004;2023-04-25T07:12:32;11.48;;;10.93;;
71383;SDS011;67558;52.166;5.004;2023-04-25T07:14:57;14.23;;;13.45;;
71383;SDS011;67558;52.166;5.004;2023-04-25T07:17:23;12.85;;;11.93;;
71383;SDS011;67558;52.166;5.004;2023-04-25T07:19:48;10.23;;;9.63;;
71383;SDS011;67558;52.166;5.004;2023-04-25T07:22:14;11.50;;;10.90;;
71383;SDS011;67558;52.166;5.004;2023-04-25T07:24:40;10.65;;;10.15;;
71383;SDS011;67558;52.166;5.004;2023-04-25T07:27:05;9.40;;;8.85;;
71383;SDS011;67558;52.166;5.004;2023-04-25T07:29:31;11.50;;;10.90;;
71383;SDS011;67558;52.166;5.004;2023-04-25T07:31:56;9.18;;;8.73;;
71383;SDS011;67558;52.166;5.004;2023-04-25T07:34:22;9.55;;;9.13;;
71383;SDS011;67558;52.166;5.004;2023-04-25T07:36:47;9.60;;;9.30;;
71383;SDS011;67558;52.166;5.004;2023-04-25T07:39:13;8.82;;;8.50;;
71383;SDS011;67558;52.166;5.004;2023-04-25T07:41:38;7.95;;;7.55;;
71383;SDS011;67558;52.166;5.004;2023-04-25T07:44:04;8.43;;;8.13;;
71383;SDS011;67558;52.166;5.004;2023-04-25T07:46:29;9.13;;;8.65;;
71383;SDS011;67558;52.166;5.004;2023-04-25T07:48:55;8.35;;;7.95;;
71383;SDS011;67558;52.166;5.004;2023-04-25T07:51:20;8.55;;;7.95;;
71383;SDS011;67558;52.166;5.004;2023-04-25T07:53:47;10.75;;;10.27;;
71383;SDS011;67558;52.166;5.004;2023-04-25T07:56:12;8.85;;;8.45;;
71383;SDS011;67558;52.166;5.004;2023-04-25T07:58:38;10.10;;;9.38;;
71383;SDS011;67558;52.166;5.004;2023-04-25T08:01:03;8.80;;;8.20;;
71383;SDS011;67558;52.166;5.004;2023-04-25T08:03:29;9.18;;;8.63;;
71383;SDS011;67558;52.166;5.004;2023-04-25T08:05:54;7.78;;;7.00;;
71383;SDS011;67558;52.166;5.004;2023-04-25T08:08:20;8.27;;;7.78;;
71383;SDS011;67558;52.166;5.004;2023-04-25T08:10:46;9.02;;;8.43;;
71383;SDS011;67558;52.166;5.004;2023-04-25T08:13:13;8.75;;;8.15;;
71383;SDS011;67558;52.166;5.004;2023-04-25T08:15:38;9.98;;;9.23;;
71383;SDS011;67558;52.166;5.004;2023-04-25T08:18:04;8.90;;;8.30;;
71383;SDS011;67558;52.166;5.004;2023-04-25T08:20:29;10.13;;;9.45;;
71383;SDS011;67558;52.166;5.004;2023-04-25T08:22:55;10.48;;;9.70;;
71383;SDS011;67558;52.166;5.004;2023-04-25T08:25:20;9.45;;;8.85;;
71383;SDS011;67558;52.166;5.004;2023-04-25T08:27:46;4.85;;;4.53;;
71383;SDS011;67558;52.166;5.004;2023-04-25T08:30:11;10.25;;;9.75;;
71383;SDS011;67558;52.166;5.004;2023-04-25T08:32:37;10.65;;;10.10;;
71383;SDS011;67558;52.166;5.004;2023-04-25T08:35:05;10.30;;;9.68;;
71383;SDS011;67558;52.166;5.004;2023-04-25T08:37:31;10.50;;;9.95;;
71383;SDS011;67558;52.166;5.004;2023-04-25T08:39:57;11.32;;;10.55;;
71383;SDS011;67558;52.166;5.004;2023-04-25T08:42:22;11.18;;;10.15;;
71383;SDS011;67558;52.166;5.004;2023-04-25T08:44:49;10.80;;;10.20;;
71383;SDS011;67558;52.166;5.004;2023-04-25T08:47:15;9.75;;;9.25;;
71383;SDS011;67558;52.166;5.004;2023-04-25T08:49:45;10.40;;;9.82;;
71383;SDS011;67558;52.166;5.004;2023-04-25T08:52:11;9.65;;;9.25;;
71383;SDS011;67558;52.166;5.004;2023-04-25T08:54:41;10.27;;;9.85;;
71383;SDS011;67558;52.166;5.004;2023-04-25T08:57:11;10.75;;;10.43;;
71383;SDS011;67558;52.166;5.004;2023-04-25T08:59:37;9.40;;;8.90;;
71383;SDS011;67558;52.166;5.004;2023-04-25T09:02:04;9.55;;;8.90;;
71383;SDS011;67558;52.166;5.004;2023-04-25T09:04:32;10.15;;;9.60;;
71383;SDS011;67558;52.166;5.004;2023-04-25T09:06:58;10.23;;;9.80;;
71383;SDS011;67558;52.166;5.004;2023-04-25T09:09:23;9.15;;;8.63;;
71383;SDS011;67558;52.166;5.004;2023-04-25T09:11:49;9.13;;;8.32;;
71383;SDS011;67558;52.166;5.004;2023-04-25T09:14:19;9.27;;;8.68;;
71383;SDS011;67558;52.166;5.004;2023-04-25T09:19:24;9.63;;;9.15;;
71383;SDS011;67558;52.166;5.004;2023-04-25T09:21:55;11.13;;;10.55;;
71383;SDS011;67558;52.166;5.004;2023-04-25T09:26:56;11.00;;;10.27;;
71383;SDS011;67558;52.166;5.004;2023-04-25T09:29:28;9.63;;;9.18;;
71383;SDS011;67558;52.166;5.004;2023-04-25T09:34:40;11.18;;;10.48;;
71383;SDS011;67558;52.166;5.004;2023-04-25T09:37:08;11.05;;;10.23;;
71383;SDS011;67558;52.166;5.004;2023-04-25T09:39:35;5.30;;;5.00;;
71383;SDS011;67558;52.166;5.004;2023-04-25T09:42:02;10.65;;;10.15;;
71383;SDS011;67558;52.166;5.004;2023-04-25T09:44:28;6.72;;;5.75;;
71383;SDS011;67558;52.166;5.004;2023-04-25T09:46:53;11.43;;;10.98;;
71383;SDS011;67558;52.166;5.004;2023-04-25T09:49:19;11.15;;;10.68;;
71383;SDS011;67558;52.166;5.004;2023-04-25T09:51:58;9.95;;;9.57;;
71383;SDS011;67558;52.166;5.004;2023-04-25T09:54:25;9.38;;;8.98;;
71383;SDS011;67558;52.166;5.004;2023-04-25T09:56:51;10.68;;;10.10;;
71383;SDS011;67558;52.166;5.004;2023-04-25T09:59:21;8.82;;;8.43;;
71383;SDS011;67558;52.166;5.004;2023-04-25T10:01:50;11.15;;;10.27;;
71383;SDS011;67558;52.166;5.004;2023-04-25T10:04:22;9.27;;;8.80;;
71383;SDS011;67558;52.166;5.004;2023-04-25T10:06:51;11.02;;;10.43;;
71383;SDS011;67558;52.166;5.004;2023-04-25T10:09:21;5.70;;;5.28;;
71383;SDS011;67558;52.166;5.004;2023-04-25T10:11:50;10.60;;;10.20;;
71383;SDS011;67558;52.166;5.004;2023-04-25T10:14:16;11.05;;;10.38;;
71383;SDS011;67558;52.166;5.004;2023-04-25T10:16:43;15.68;;;15.02;;
71383;SDS011;67558;52.166;5.004;2023-04-25T10:19:10;12.85;;;12.25;;
71383;SDS011;67558;52.166;5.004;2023-04-25T10:21:36;12.10;;;11.50;;
71383;SDS011;67558;52.166;5.004;2023-04-25T10:24:30;13.23;;;12.73;;
71383;SDS011;67558;52.166;5.004;2023-04-25T10:26:56;12.15;;;11.65;;
71383;SDS011;67558;52.166;5.004;2023-04-25T10:29:25;13.40;;;12.88;;
71383;SDS011;67558;52.166;5.004;2023-04-25T10:31:51;11.70;;;11.13;;
71383;SDS011;67558;52.166;5.004;2023-04-25T10:34:17;12.40;;;11.80;;
71383;SDS011;67558;52.166;5.004;2023-04-25T10:36:43;12.57;;;12.07;;
71383;SDS011;67558;52.166;5.004;2023-04-25T10:39:15;13.35;;;12.82;;
71383;SDS011;67558;52.166;5.004;2023-04-25T10:41:57;12.90;;;12.20;;
71383;SDS011;67558;52.166;5.004;2023-04-25T10:44:27;13.43;;;12.82;;
71383;SDS011;67558;52.166;5.004;2023-04-25T10:46:57;14.00;;;12.73;;
71383;SDS011;67558;52.166;5.004;2023-04-25T10:49:28;14.35;;;13.68;;
71383;SDS011;67558;52.166;5.004;2023-04-25T10:54:42;10.98;;;10.57;;
71383;SDS011;67558;52.166;5.004;2023-04-25T11:00:00;11.48;;;10.70;;
71383;SDS011;67558;52.166;5.004;2023-04-25T11:02:37;11.90;;;11.15;;
71383;SDS011;67558;52.166;5.004;2023-04-25T11:05:05;11.70;;;11.20;;
71383;SDS011;67558;52.166;5.004;2023-04-25T11:07:33;13.05;;;12.20;;
71383;SDS011;67558;52.166;5.004;2023-04-25T11:10:16;11.23;;;10.75;;
71383;SDS011;67558;52.166;5.004;2023-04-25T11:12:41;7.22;;;6.72;;
71383;SDS011;67558;52.166;5.004;2023-04-25T11:15:07;10.63;;;10.18;;
71383;SDS011;67558;52.166;5.004;2023-04-25T11:17:33;12.80;;;12.20;;
71383;SDS011;67558;52.166;5.004;2023-04-25T11:19:59;10.35;;;9.73;;
71383;SDS011;67558;52.166;5.004;2023-04-25T11:22:25;10.75;;;10.20;;
71383;SDS011;67558;52.166;5.004;2023-04-25T11:24:52;10.25;;;9.77;;
71383;SDS011;67558;52.166;5.004;2023-04-25T11:27:17;11.38;;;10.75;;
71383;SDS011;67558;52.166;5.004;2023-04-25T11:29:43;6.50;;;6.10;;
71383;SDS011;67558;52.166;5.004;2023-04-25T11:32:08;9.20;;;8.77;;
71383;SDS011;67558;52.166;5.004;2023-04-25T11:34:34;9.70;;;9.35;;
71383;SDS011;67558;52.166;5.004;2023-04-25T11:37:00;9.50;;;9.10;;
71383;SDS011;67558;52.166;5.004;2023-04-25T11:39:27;9.25;;;8.65;;
71383;SDS011;67558;52.166;5.004;2023-04-25T11:41:53;9.65;;;9.20;;
71383;SDS011;67558;52.166;5.004;2023-04-25T11:44:19;8.95;;;8.55;;
71383;SDS011;67558;52.166;5.004;2023-04-25T11:46:46;9.65;;;9.25;;
71383;SDS011;67558;52.166;5.004;2023-04-25T11:49:13;9.90;;;9.30;;
71383;SDS011;67558;52.166;5.004;2023-04-25T11:51:41;9.13;;;8.48;;
71383;SDS011;67558;52.166;5.004;2023-04-25T11:54:09;9.05;;;8.55;;
71383;SDS011;67558;52.166;5.004;2023-04-25T11:56:37;12.18;;;10.52;;
71383;SDS011;67558;52.166;5.004;2023-04-25T11:59:05;8.18;;;7.75;;
71383;SDS011;67558;52.166;5.004;2023-04-25T12:01:32;10.52;;;9.70;;
71383;SDS011;67558;52.166;5.004;2023-04-25T12:04:09;5.70;;;5.40;;
71383;SDS011;67558;52.166;5.004;2023-04-25T12:06:46;8.50;;;8.10;;
71383;SDS011;67558;52.166;5.004;2023-04-25T12:09:13;8.93;;;8.23;;
71383;SDS011;67558;52.166;5.004;2023-04-25T12:14:24;8.57;;;8.07;;
71383;SDS011;67558;52.166;5.004;2023-04-25T12:16:54;9.80;;;9.20;;
71383;SDS011;67558;52.166;5.004;2023-04-25T12:19:23;8.85;;;8.45;;
71383;SDS011;67558;52.166;5.004;2023-04-25T12:21:49;9.60;;;9.02;;
71383;SDS011;67558;52.166;5.004;2023-04-25T12:24:17;8.40;;;8.10;;
71383;SDS011;67558;52.166;5.004;2023-04-25T12:26:52;9.57;;;9.00;;
71383;SDS011;67558;52.166;5.004;2023-04-25T12:29:20;10.00;;;9.40;;
71383;SDS011;67558;52.166;5.004;2023-04-25T12:31:48;9.77;;;9.38;;
71383;SDS011;67558;52.166;5.004;2023-04-25T12:34:17;10.27;;;9.80;;
71383;SDS011;67558;52.166;5.004;2023-04-25T12:36:44;10.65;;;9.80;;
71383;SDS011;67558;52.166;5.004;2023-04-25T12:39:21;9.10;;;8.70;;
71383;SDS011;67558;52.166;5.004;2023-04-25T12:41:49;8.57;;;8.20;;
71383;SDS011;67558;52.166;5.004;2023-04-25T12:44:16;9.70;;;9.15;;
71383;SDS011;67558;52.166;5.004;2023-04-25T12:46:42;7.05;;;6.40;;
71383;SDS011;67558;52.166;5.004;2023-04-25T12:49:09;10.93;;;10.13;;
71383;SDS011;67558;52.166;5.004;2023-04-25T12:51:35;11.30;;;10.90;;
71383;SDS011;67558;52.166;5.004;2023-04-25T12:54:01;5.05;;;4.75;;
71383;SDS011;67558;52.166;5.004;2023-04-25T12:56:28;10.98;;;10.57;;
71383;SDS011;67558;52.166;5.004;2023-04-25T12:58:54;11.30;;;10.73;;
71383;SDS011;67558;52.166;5.004;2023-04-25T13:01:20;7.32;;;7.03;;
71383;SDS011;67558;52.166;5.004;2023-04-25T13:03:47;10.70;;;10.18;;
71383;SDS011;67558;52.166;5.004;2023-04-25T13:06:15;10.50;;;9.98;;
71383;SDS011;67558;52.166;5.004;2023-04-25T13:08:41;7.30;;;6.75;;
71383;SDS011;67558;52.166;5.004;2023-04-25T13:11:08;9.50;;;9.10;;
71383;SDS011;67558;52.166;5.004;2023-04-25T13:13:34;10.00;;;9.60;;
71383;SDS011;67558;52.166;5.004;2023-04-25T13:16:00;10.73;;;10.40;;
71383;SDS011;67558;52.166;5.004;2023-04-25T13:18:29;10.75;;;10.20;;
71383;SDS011;67558;52.166;5.004;2023-04-25T13:20:59;9.65;;;9.15;;
71383;SDS011;67558;52.166;5.004;2023-04-25T13:23:25;9.88;;;9.38;;
71383;SDS011;67558;52.166;5.004;2023-04-25T13:25:53;10.18;;;9.70;;
71383;SDS011;67558;52.166;5.004;2023-04-25T13:28:19;10.45;;;10.05;;
71383;SDS011;67558;52.166;5.004;2023-04-25T13:30:45;10.80;;;10.23;;
71383;SDS011;67558;52.166;5.004;2023-04-25T13:33:11;11.98;;;11.35;;
71383;SDS011;67558;52.166;5.004;2023-04-25T13:35:38;11.95;;;11.35;;
71383;SDS011;67558;52.166;5.004;2023-04-25T13:38:05;12.63;;;12.18;;
71383;SDS011;67558;52.166;5.004;2023-04-25T13:40:30;11.85;;;11.18;;
71383;SDS011;67558;52.166;5.004;2023-04-25T13:42:58;11.43;;;11.02;;
71383;SDS011;67558;52.166;5.004;2023-04-25T13:45:25;11.43;;;10.82;;
71383;SDS011;67558;52.166;5.004;2023-04-25T13:47:50;6.30;;;5.80;;
71383;SDS011;67558;52.166;5.004;2023-04-25T13:50:17;9.93;;;9.43;;
71383;SDS011;67558;52.166;5.004;2023-04-25T13:52:43;9.80;;;9.30;;
71383;SDS011;67558;52.166;5.004;2023-04-25T13:55:09;10.43;;;9.93;;
71383;SDS011;67558;52.166;5.004;2023-04-25T13:57:35;11.60;;;11.07;;
71383;SDS011;67558;52.166;5.004;2023-04-25T14:00:02;10.88;;;10.48;;
71383;SDS011;67558;52.166;5.004;2023-04-25T14:02:38;11.55;;;10.90;;
71383;SDS011;67558;52.166;5.004;2023-04-25T14:05:04;11.63;;;11.10;;
71383;SDS011;67558;52.166;5.004;2023-04-25T14:07:30;11.68;;;10.93;;
71383;SDS011;67558;52.166;5.004;2023-04-25T14:09:56;11.25;;;10.73;;
71383;SDS011;67558;52.166;5.004;2023-04-25T14:12:25;11.50;;;10.98;;
71383;SDS011;67558;52.166;5.004;2023-04-25T14:14:54;12.50;;;11.55;;
71383;SDS011;67558;52.166;5.004;2023-04-25T14:17:19;10.18;;;9.57;;
71383;SDS011;67558;52.166;5.004;2023-04-25T14:19:45;13.98;;;13.25;;
71383;SDS011;67558;52.166;5.004;2023-04-25T14:22:10;11.40;;;10.65;;
71383;SDS011;67558;52.166;5.004;2023-04-25T14:24:36;11.15;;;10.40;;
71383;SDS011;67558;52.166;5.004;2023-04-25T14:27:01;11.05;;;10.27;;
71383;SDS011;67558;52.166;5.004;2023-04-25T14:29:27;11.35;;;10.85;;
71383;SDS011;67558;52.166;5.004;2023-04-25T14:31:52;10.13;;;9.73;;
71383;SDS011;67558;52.166;5.004;2023-04-25T14:34:19;10.38;;;9.85;;
71383;SDS011;67558;52.166;5.004;2023-04-25T14:36:45;10.63;;;10.13;;
71383;SDS011;67558;52.166;5.004;2023-04-25T14:39:10;11.13;;;10.68;;
71383;SDS011;67558;52.166;5.004;2023-04-25T14:41:37;10.63;;;10.05;;
71383;SDS011;67558;52.166;5.004;2023-04-25T14:44:02;9.20;;;8.80;;
71383;SDS011;67558;52.166;5.004;2023-04-25T14:46:28;11.45;;;11.05;;
71383;SDS011;67558;52.166;5.004;2023-04-25T14:48:53;10.50;;;9.77;;
71383;SDS011;67558;52.166;5.004;2023-04-25T14:51:20;9.15;;;8.77;;
71383;SDS011;67558;52.166;5.004;2023-04-25T14:53:46;10.05;;;9.38;;